sensor_id;sensor_type;location;lat;lon;timestamp;P1;durP1;ratioP1;P2;durP2;ratioP2
37657;SDS011;23500;53.268;8.308;2022-08-21T00:02:23;1.77;;;1.60;;
37657;SDS011;23500;53.268;8.308;2022-08-21T00:04:50;1.55;;;1.40;;
37657;SDS011;23500;53.268;8.308;2022-08-21T00:07:17;2.30;;;1.70;;
37657;SDS011;23500;53.268;8.308;2022-08-21T00:09:43;1.80;;;1.67;;
37657;SDS011;23500;53.268;8.308;2022-08-21T00:12:09;2.40;;;1.85;;
37657;SDS011;23500;53.268;8.308;2022-08-21T00:14:35;2.00;;;1.70;;
37657;SDS011;23500;53.268;8.308;2022-08-21T00:17:01;1.80;;;1.42;;
37657;SDS011;23500;53.268;8.308;2022-08-21T00:19:28;1.95;;;1.63;;
37657;SDS011;23500;53.268;8.308;2022-08-21T00:21:54;2.30;;;1.63;;
37657;SDS011;23500;53.268;8.308;2022-08-21T00:24:20;1.90;;;1.70;;
37657;SDS011;23500;53.268;8.308;2022-08-21T00:26:47;1.50;;;1.40;;
37657;SDS011;23500;53.268;8.308;2022-08-21T00:29:12;2.53;;;1.85;;
37657;SDS011;23500;53.268;8.308;2022-08-21T00:31:39;1.77;;;1.60;;
37657;SDS011;23500;53.268;8.308;2022-08-21T00:34:06;1.52;;;1.35;;
37657;SDS011;23500;53.268;8.308;2022-08-21T00:36:32;1.92;;;1.52;;
37657;SDS011;23500;53.268;8.308;2022-08-21T00:38:58;2.00;;;1.80;;
37657;SDS011;23500;53.268;8.308;2022-08-21T00:41:25;1.70;;;1.50;;
37657;SDS011;23500;53.268;8.308;2022-08-21T00:43:51;1.33;;;1.23;;
37657;SDS011;23500;53.268;8.308;2022-08-21T00:46:17;1.70;;;1.60;;
37657;SDS011;23500;53.268;8.308;2022-08-21T00:48:43;1.83;;;1.70;;
37657;SDS011;23500;53.268;8.308;2022-08-21T00:51:17;1.90;;;1.58;;
37657;SDS011;23500;53.268;8.308;2022-08-21T00:53:51;1.52;;;1.42;;
37657;SDS011;23500;53.268;8.308;2022-08-21T00:56:20;2.05;;;1.77;;
37657;SDS011;23500;53.268;8.308;2022-08-21T00:58:48;1.55;;;1.45;;
37657;SDS011;23500;53.268;8.308;2022-08-21T01:01:14;1.58;;;1.48;;
37657;SDS011;23500;53.268;8.308;2022-08-21T01:03:40;2.65;;;1.60;;
37657;SDS011;23500;53.268;8.308;2022-08-21T01:06:06;2.10;;;1.80;;
37657;SDS011;23500;53.268;8.308;2022-08-21T01:08:33;2.00;;;1.42;;
37657;SDS011;23500;53.268;8.308;2022-08-21T01:11:00;1.70;;;1.60;;
37657;SDS011;23500;53.268;8.308;2022-08-21T01:13:28;2.13;;;1.60;;
37657;SDS011;23500;53.268;8.308;2022-08-21T01:15:56;1.70;;;1.55;;
37657;SDS011;23500;53.268;8.308;2022-08-21T01:18:25;1.63;;;1.50;;
37657;SDS011;23500;53.268;8.308;2022-08-21T01:21:09;1.60;;;1.50;;
37657;SDS011;23500;53.268;8.308;2022-08-21T01:23:37;1.60;;;1.50;;
37657;SDS011;23500;53.268;8.308;2022-08-21T01:26:05;2.28;;;1.45;;
37657;SDS011;23500;53.268;8.308;2022-08-21T01:28:33;1.40;;;1.30;;
37657;SDS011;23500;53.268;8.308;2022-08-21T01:31:04;1.60;;;1.50;;
37657;SDS011;23500;53.268;8.308;2022-08-21T01:33:32;1.67;;;1.58;;
37657;SDS011;23500;53.268;8.308;2022-08-21T01:35:58;1.40;;;1.30;;
37657;SDS011;23500;53.268;8.308;2022-08-21T01:38:24;2.15;;;1.63;;
37657;SDS011;23500;53.268;8.308;2022-08-21T01:40:50;1.52;;;1.42;;
37657;SDS011;23500;53.268;8.308;2022-08-21T01:43:15;1.70;;;1.40;;
37657;SDS011;23500;53.268;8.308;2022-08-21T01:45:41;1.80;;;1.50;;
37657;SDS011;23500;53.268;8.308;2022-08-21T01:48:07;1.50;;;1.40;;
37657;SDS011;23500;53.268;8.308;2022-08-21T01:50:33;1.60;;;1.35;;
37657;SDS011;23500;53.268;8.308;2022-08-21T01:52:59;1.70;;;1.60;;
37657;SDS011;23500;53.268;8.308;2022-08-21T01:55:25;1.83;;;1.60;;
37657;SDS011;23500;53.268;8.308;2022-08-21T01:57:51;1.40;;;1.30;;
37657;SDS011;23500;53.268;8.308;2022-08-21T02:00:18;2.08;;;1.67;;
37657;SDS011;23500;53.268;8.308;2022-08-21T02:02:47;1.50;;;1.40;;
37657;SDS011;23500;53.268;8.308;2022-08-21T02:05:13;1.50;;;1.40;;
37657;SDS011;23500;53.268;8.308;2022-08-21T02:07:43;1.70;;;1.48;;
37657;SDS011;23500;53.268;8.308;2022-08-21T02:10:12;3.10;;;1.50;;
37657;SDS011;23500;53.268;8.308;2022-08-21T02:12:39;1.35;;;1.23;;
37657;SDS011;23500;53.268;8.308;2022-08-21T02:15:05;1.42;;;1.33;;
37657;SDS011;23500;53.268;8.308;2022-08-21T02:17:42;1.92;;;1.52;;
37657;SDS011;23500;53.268;8.308;2022-08-21T02:20:14;1.50;;;1.40;;
37657;SDS011;23500;53.268;8.308;2022-08-21T02:22:43;2.65;;;1.52;;
37657;SDS011;23500;53.268;8.308;2022-08-21T02:25:09;2.03;;;1.65;;
37657;SDS011;23500;53.268;8.308;2022-08-21T02:27:39;1.50;;;1.40;;
37657;SDS011;23500;53.268;8.308;2022-08-21T02:30:10;4.13;;;1.58;;
37657;SDS011;23500;53.268;8.308;2022-08-21T02:32:38;1.48;;;1.38;;
37657;SDS011;23500;53.268;8.308;2022-08-21T02:35:05;1.85;;;1.48;;
37657;SDS011;23500;53.268;8.308;2022-08-21T02:37:31;1.60;;;1.50;;
37657;SDS011;23500;53.268;8.308;2022-08-21T02:39:58;2.88;;;1.60;;
37657;SDS011;23500;53.268;8.308;2022-08-21T02:42:25;1.80;;;1.50;;
37657;SDS011;23500;53.268;8.308;2022-08-21T02:44:50;1.67;;;1.58;;
37657;SDS011;23500;53.268;8.308;2022-08-21T02:47:16;1.42;;;1.33;;
37657;SDS011;23500;53.268;8.308;2022-08-21T02:49:42;1.80;;;1.58;;
37657;SDS011;23500;53.268;8.308;2022-08-21T02:52:07;1.52;;;1.30;;
37657;SDS011;23500;53.268;8.308;2022-08-21T02:54:33;1.55;;;1.45;;
37657;SDS011;23500;53.268;8.308;2022-08-21T02:56:58;1.70;;;1.60;;
37657;SDS011;23500;53.268;8.308;2022-08-21T02:59:24;1.60;;;1.50;;
37657;SDS011;23500;53.268;8.308;2022-08-21T03:01:50;1.63;;;1.40;;
37657;SDS011;23500;53.268;8.308;2022-08-21T03:04:15;1.67;;;1.30;;
37657;SDS011;23500;53.268;8.308;2022-08-21T03:06:41;1.42;;;1.33;;
37657;SDS011;23500;53.268;8.308;2022-08-21T03:09:07;1.33;;;1.23;;
37657;SDS011;23500;53.268;8.308;2022-08-21T03:11:33;1.88;;;1.60;;
37657;SDS011;23500;53.268;8.308;2022-08-21T03:13:59;1.40;;;1.30;;
37657;SDS011;23500;53.268;8.308;2022-08-21T03:16:24;1.48;;;1.30;;
37657;SDS011;23500;53.268;8.308;2022-08-21T03:18:50;1.83;;;1.52;;
37657;SDS011;23500;53.268;8.308;2022-08-21T03:21:16;1.58;;;1.30;;
37657;SDS011;23500;53.268;8.308;2022-08-21T03:23:43;1.55;;;1.40;;
37657;SDS011;23500;53.268;8.308;2022-08-21T03:26:09;1.50;;;1.40;;
37657;SDS011;23500;53.268;8.308;2022-08-21T03:28:36;1.80;;;1.60;;
37657;SDS011;23500;53.268;8.308;2022-08-21T03:31:02;1.45;;;1.35;;
37657;SDS011;23500;53.268;8.308;2022-08-21T03:33:27;1.60;;;1.50;;
37657;SDS011;23500;53.268;8.308;2022-08-21T03:36:00;1.45;;;1.35;;
37657;SDS011;23500;53.268;8.308;2022-08-21T03:38:30;1.30;;;1.20;;
37657;SDS011;23500;53.268;8.308;2022-08-21T03:40:57;1.60;;;1.50;;
37657;SDS011;23500;53.268;8.308;2022-08-21T03:43:23;1.40;;;1.30;;
37657;SDS011;23500;53.268;8.308;2022-08-21T03:45:49;1.55;;;1.42;;
37657;SDS011;23500;53.268;8.308;2022-08-21T03:48:15;1.60;;;1.50;;
37657;SDS011;23500;53.268;8.308;2022-08-21T03:50:42;2.42;;;1.80;;
37657;SDS011;23500;53.268;8.308;2022-08-21T03:53:09;1.58;;;1.48;;
37657;SDS011;23500;53.268;8.308;2022-08-21T03:55:36;1.52;;;1.42;;
37657;SDS011;23500;53.268;8.308;2022-08-21T03:58:02;1.42;;;1.33;;
37657;SDS011;23500;53.268;8.308;2022-08-21T04:00:29;1.50;;;1.40;;
37657;SDS011;23500;53.268;8.308;2022-08-21T04:02:54;1.70;;;1.60;;
37657;SDS011;23500;53.268;8.308;2022-08-21T04:05:20;1.30;;;1.20;;
37657;SDS011;23500;53.268;8.308;2022-08-21T04:07:53;1.67;;;1.30;;
37657;SDS011;23500;53.268;8.308;2022-08-21T04:10:20;1.95;;;1.50;;
37657;SDS011;23500;53.268;8.308;2022-08-21T04:12:45;1.67;;;1.30;;
37657;SDS011;23500;53.268;8.308;2022-08-21T04:15:11;1.30;;;1.20;;
37657;SDS011;23500;53.268;8.308;2022-08-21T04:17:38;1.60;;;1.50;;
37657;SDS011;23500;53.268;8.308;2022-08-21T04:20:04;1.27;;;1.15;;
37657;SDS011;23500;53.268;8.308;2022-08-21T04:22:31;1.40;;;1.30;;
37657;SDS011;23500;53.268;8.308;2022-08-21T04:24:56;2.00;;;1.50;;
37657;SDS011;23500;53.268;8.308;2022-08-21T04:27:22;1.75;;;1.30;;
37657;SDS011;23500;53.268;8.308;2022-08-21T04:29:48;1.50;;;1.30;;
37657;SDS011;23500;53.268;8.308;2022-08-21T04:32:20;1.30;;;1.20;;
37657;SDS011;23500;53.268;8.308;2022-08-21T04:34:49;2.65;;;1.40;;
37657;SDS011;23500;53.268;8.308;2022-08-21T04:37:15;1.50;;;1.40;;
37657;SDS011;23500;53.268;8.308;2022-08-21T04:39:41;1.23;;;1.13;;
37657;SDS011;23500;53.268;8.308;2022-08-21T04:42:07;1.40;;;1.30;;
37657;SDS011;23500;53.268;8.308;2022-08-21T04:44:33;1.75;;;1.40;;
37657;SDS011;23500;53.268;8.308;2022-08-21T04:46:59;1.73;;;1.60;;
37657;SDS011;23500;53.268;8.308;2022-08-21T04:49:25;1.30;;;1.20;;
37657;SDS011;23500;53.268;8.308;2022-08-21T04:51:51;1.40;;;1.30;;
37657;SDS011;23500;53.268;8.308;2022-08-21T04:54:18;1.38;;;1.27;;
37657;SDS011;23500;53.268;8.308;2022-08-21T04:56:59;1.40;;;1.30;;
37657;SDS011;23500;53.268;8.308;2022-08-21T04:59:37;1.67;;;1.50;;
37657;SDS011;23500;53.268;8.308;2022-08-21T05:02:06;1.45;;;1.35;;
37657;SDS011;23500;53.268;8.308;2022-08-21T05:04:34;1.40;;;1.30;;
37657;SDS011;23500;53.268;8.308;2022-08-21T05:07:04;1.48;;;1.33;;
37657;SDS011;23500;53.268;8.308;2022-08-21T05:09:32;1.48;;;1.30;;
37657;SDS011;23500;53.268;8.308;2022-08-21T05:12:00;1.40;;;1.30;;
37657;SDS011;23500;53.268;8.308;2022-08-21T05:14:27;1.45;;;1.35;;
37657;SDS011;23500;53.268;8.308;2022-08-21T05:16:53;1.45;;;1.27;;
37657;SDS011;23500;53.268;8.308;2022-08-21T05:19:18;1.30;;;1.17;;
37657;SDS011;23500;53.268;8.308;2022-08-21T05:21:45;1.35;;;1.20;;
37657;SDS011;23500;53.268;8.308;2022-08-21T05:24:12;1.40;;;1.30;;
37657;SDS011;23500;53.268;8.308;2022-08-21T05:26:38;1.48;;;1.30;;
37657;SDS011;23500;53.268;8.308;2022-08-21T05:29:05;1.73;;;1.40;;
37657;SDS011;23500;53.268;8.308;2022-08-21T05:31:31;2.67;;;1.70;;
37657;SDS011;23500;53.268;8.308;2022-08-21T05:33:56;2.00;;;1.90;;
37657;SDS011;23500;53.268;8.308;2022-08-21T05:36:22;1.83;;;1.38;;
37657;SDS011;23500;53.268;8.308;2022-08-21T05:38:48;2.28;;;1.40;;
37657;SDS011;23500;53.268;8.308;2022-08-21T05:41:14;1.48;;;1.38;;
37657;SDS011;23500;53.268;8.308;2022-08-21T05:43:40;2.45;;;1.67;;
37657;SDS011;23500;53.268;8.308;2022-08-21T05:46:06;1.50;;;1.40;;
37657;SDS011;23500;53.268;8.308;2022-08-21T05:48:32;1.40;;;1.30;;
37657;SDS011;23500;53.268;8.308;2022-08-21T05:51:03;1.15;;;1.00;;
37657;SDS011;23500;53.268;8.308;2022-08-21T05:53:31;1.38;;;1.27;;
37657;SDS011;23500;53.268;8.308;2022-08-21T05:55:57;1.30;;;1.20;;
37657;SDS011;23500;53.268;8.308;2022-08-21T05:58:22;1.50;;;1.30;;
37657;SDS011;23500;53.268;8.308;2022-08-21T06:00:48;1.40;;;1.30;;
37657;SDS011;23500;53.268;8.308;2022-08-21T06:06:10;1.30;;;1.20;;
37657;SDS011;23500;53.268;8.308;2022-08-21T06:08:36;1.30;;;1.20;;
37657;SDS011;23500;53.268;8.308;2022-08-21T06:11:02;1.30;;;1.20;;
37657;SDS011;23500;53.268;8.308;2022-08-21T06:13:29;1.50;;;1.40;;
37657;SDS011;23500;53.268;8.308;2022-08-21T06:16:06;1.42;;;1.20;;
37657;SDS011;23500;53.268;8.308;2022-08-21T06:18:34;1.10;;;1.00;;
37657;SDS011;23500;53.268;8.308;2022-08-21T06:21:01;1.83;;;1.30;;
37657;SDS011;23500;53.268;8.308;2022-08-21T06:23:27;1.40;;;1.30;;
37657;SDS011;23500;53.268;8.308;2022-08-21T06:25:52;1.13;;;1.02;;
37657;SDS011;23500;53.268;8.308;2022-08-21T06:28:19;1.40;;;1.27;;
37657;SDS011;23500;53.268;8.308;2022-08-21T06:30:45;1.33;;;1.23;;
37657;SDS011;23500;53.268;8.308;2022-08-21T06:33:10;1.25;;;1.15;;
37657;SDS011;23500;53.268;8.308;2022-08-21T06:35:36;1.67;;;1.20;;
37657;SDS011;23500;53.268;8.308;2022-08-21T06:38:02;1.17;;;1.08;;
37657;SDS011;23500;53.268;8.308;2022-08-21T06:40:28;1.33;;;1.23;;
37657;SDS011;23500;53.268;8.308;2022-08-21T06:42:54;1.25;;;1.10;;
37657;SDS011;23500;53.268;8.308;2022-08-21T06:45:21;1.20;;;1.15;;
37657;SDS011;23500;53.268;8.308;2022-08-21T06:47:47;1.40;;;1.30;;
37657;SDS011;23500;53.268;8.308;2022-08-21T06:50:12;1.10;;;1.00;;
37657;SDS011;23500;53.268;8.308;2022-08-21T06:52:38;1.40;;;1.30;;
37657;SDS011;23500;53.268;8.308;2022-08-21T06:55:04;1.30;;;1.20;;
37657;SDS011;23500;53.268;8.308;2022-08-21T06:57:32;1.30;;;1.20;;
37657;SDS011;23500;53.268;8.308;2022-08-21T06:59:58;1.17;;;1.08;;
37657;SDS011;23500;53.268;8.308;2022-08-21T07:02:24;1.25;;;1.15;;
37657;SDS011;23500;53.268;8.308;2022-08-21T07:04:50;1.85;;;1.23;;
37657;SDS011;23500;53.268;8.308;2022-08-21T07:07:16;1.40;;;1.13;;
37657;SDS011;23500;53.268;8.308;2022-08-21T07:09:41;1.30;;;1.20;;
37657;SDS011;23500;53.268;8.308;2022-08-21T07:12:07;1.30;;;1.20;;
37657;SDS011;23500;53.268;8.308;2022-08-21T07:14:34;1.33;;;1.23;;
37657;SDS011;23500;53.268;8.308;2022-08-21T07:17:00;4.35;;;2.30;;
37657;SDS011;23500;53.268;8.308;2022-08-21T07:19:26;12.27;;;3.45;;
37657;SDS011;23500;53.268;8.308;2022-08-21T07:21:53;8.32;;;3.45;;
37657;SDS011;23500;53.268;8.308;2022-08-21T07:24:23;5.85;;;2.92;;
37657;SDS011;23500;53.268;8.308;2022-08-21T07:26:48;4.47;;;2.10;;
37657;SDS011;23500;53.268;8.308;2022-08-21T07:29:14;5.38;;;2.50;;
37657;SDS011;23500;53.268;8.308;2022-08-21T07:31:40;7.00;;;3.50;;
37657;SDS011;23500;53.268;8.308;2022-08-21T07:34:06;8.00;;;3.10;;
37657;SDS011;23500;53.268;8.308;2022-08-21T07:36:33;7.03;;;3.40;;
37657;SDS011;23500;53.268;8.308;2022-08-21T07:38:58;7.88;;;2.97;;
37657;SDS011;23500;53.268;8.308;2022-08-21T07:41:26;5.30;;;2.58;;
37657;SDS011;23500;53.268;8.308;2022-08-21T07:43:54;8.10;;;2.78;;
37657;SDS011;23500;53.268;8.308;2022-08-21T07:46:24;9.07;;;2.63;;
37657;SDS011;23500;53.268;8.308;2022-08-21T07:48:50;7.43;;;3.25;;
37657;SDS011;23500;53.268;8.308;2022-08-21T07:51:17;8.57;;;3.13;;
37657;SDS011;23500;53.268;8.308;2022-08-21T07:53:48;8.57;;;3.30;;
37657;SDS011;23500;53.268;8.308;2022-08-21T07:56:15;6.22;;;2.72;;
37657;SDS011;23500;53.268;8.308;2022-08-21T07:58:41;6.68;;;2.97;;
37657;SDS011;23500;53.268;8.308;2022-08-21T08:01:06;7.50;;;3.25;;
37657;SDS011;23500;53.268;8.308;2022-08-21T08:03:32;6.65;;;2.85;;
37657;SDS011;23500;53.268;8.308;2022-08-21T08:05:58;7.45;;;2.90;;
37657;SDS011;23500;53.268;8.308;2022-08-21T08:08:24;3.20;;;2.30;;
37657;SDS011;23500;53.268;8.308;2022-08-21T08:10:50;5.28;;;2.75;;
37657;SDS011;23500;53.268;8.308;2022-08-21T08:13:17;4.63;;;2.60;;
37657;SDS011;23500;53.268;8.308;2022-08-21T08:15:43;6.47;;;3.08;;
37657;SDS011;23500;53.268;8.308;2022-08-21T08:18:09;6.93;;;3.13;;
37657;SDS011;23500;53.268;8.308;2022-08-21T08:20:34;5.95;;;3.05;;
37657;SDS011;23500;53.268;8.308;2022-08-21T08:23:00;5.88;;;3.05;;
37657;SDS011;23500;53.268;8.308;2022-08-21T08:25:26;5.22;;;2.67;;
37657;SDS011;23500;53.268;8.308;2022-08-21T08:27:52;8.60;;;3.47;;
37657;SDS011;23500;53.268;8.308;2022-08-21T08:30:18;6.20;;;3.30;;
37657;SDS011;23500;53.268;8.308;2022-08-21T08:32:45;6.55;;;3.17;;
37657;SDS011;23500;53.268;8.308;2022-08-21T08:35:12;5.35;;;3.38;;
37657;SDS011;23500;53.268;8.308;2022-08-21T08:37:38;6.80;;;3.25;;
37657;SDS011;23500;53.268;8.308;2022-08-21T08:40:06;5.15;;;3.25;;
37657;SDS011;23500;53.268;8.308;2022-08-21T08:42:37;5.05;;;3.03;;
37657;SDS011;23500;53.268;8.308;2022-08-21T08:45:11;7.90;;;3.28;;
37657;SDS011;23500;53.268;8.308;2022-08-21T08:47:45;7.22;;;3.35;;
37657;SDS011;23500;53.268;8.308;2022-08-21T08:50:23;5.72;;;3.05;;
37657;SDS011;23500;53.268;8.308;2022-08-21T08:53:00;6.05;;;3.22;;
37657;SDS011;23500;53.268;8.308;2022-08-21T08:55:35;6.72;;;3.22;;
37657;SDS011;23500;53.268;8.308;2022-08-21T08:58:04;8.18;;;3.22;;
37657;SDS011;23500;53.268;8.308;2022-08-21T09:00:30;5.82;;;3.30;;
37657;SDS011;23500;53.268;8.308;2022-08-21T09:02:57;6.20;;;3.10;;
37657;SDS011;23500;53.268;8.308;2022-08-21T09:05:45;6.80;;;3.50;;
37657;SDS011;23500;53.268;8.308;2022-08-21T09:11:01;6.60;;;3.55;;
37657;SDS011;23500;53.268;8.308;2022-08-21T09:16:58;6.72;;;3.70;;
37657;SDS011;23500;53.268;8.308;2022-08-21T09:22:39;7.68;;;3.30;;
37657;SDS011;23500;53.268;8.308;2022-08-21T09:25:15;5.95;;;3.15;;
37657;SDS011;23500;53.268;8.308;2022-08-21T09:27:42;6.18;;;3.10;;
37657;SDS011;23500;53.268;8.308;2022-08-21T09:30:08;5.57;;;3.35;;
37657;SDS011;23500;53.268;8.308;2022-08-21T09:32:36;5.80;;;3.72;;
37657;SDS011;23500;53.268;8.308;2022-08-21T09:43:06;9.05;;;3.83;;
37657;SDS011;23500;53.268;8.308;2022-08-21T09:45:39;5.10;;;3.10;;
37657;SDS011;23500;53.268;8.308;2022-08-21T09:48:11;5.95;;;3.42;;
37657;SDS011;23500;53.268;8.308;2022-08-21T09:50:38;5.10;;;3.00;;
37657;SDS011;23500;53.268;8.308;2022-08-21T09:53:05;5.47;;;3.38;;
37657;SDS011;23500;53.268;8.308;2022-08-21T09:56:05;6.50;;;3.28;;
37657;SDS011;23500;53.268;8.308;2022-08-21T09:59:15;6.20;;;3.40;;
37657;SDS011;23500;53.268;8.308;2022-08-21T10:01:46;4.78;;;3.03;;
37657;SDS011;23500;53.268;8.308;2022-08-21T10:04:15;5.47;;;2.70;;
37657;SDS011;23500;53.268;8.308;2022-08-21T10:06:46;5.53;;;2.50;;
37657;SDS011;23500;53.268;8.308;2022-08-21T10:09:13;5.55;;;2.50;;
37657;SDS011;23500;53.268;8.308;2022-08-21T10:11:42;6.53;;;2.80;;
37657;SDS011;23500;53.268;8.308;2022-08-21T10:17:10;7.53;;;2.47;;
37657;SDS011;23500;53.268;8.308;2022-08-21T10:22:54;6.68;;;2.72;;
37657;SDS011;23500;53.268;8.308;2022-08-21T10:31:00;8.20;;;3.15;;
37657;SDS011;23500;53.268;8.308;2022-08-21T10:36:12;12.07;;;4.40;;
37657;SDS011;23500;53.268;8.308;2022-08-21T10:47:25;11.13;;;4.97;;
37657;SDS011;23500;53.268;8.308;2022-08-21T10:50:25;10.45;;;4.35;;
37657;SDS011;23500;53.268;8.308;2022-08-21T10:53:22;10.88;;;4.80;;
37657;SDS011;23500;53.268;8.308;2022-08-21T10:56:01;10.82;;;4.70;;
37657;SDS011;23500;53.268;8.308;2022-08-21T10:58:37;14.00;;;4.93;;
37657;SDS011;23500;53.268;8.308;2022-08-21T11:01:15;14.50;;;6.00;;
37657;SDS011;23500;53.268;8.308;2022-08-21T11:03:51;12.45;;;5.55;;
37657;SDS011;23500;53.268;8.308;2022-08-21T11:06:26;14.20;;;5.47;;
37657;SDS011;23500;53.268;8.308;2022-08-21T11:08:55;11.45;;;5.10;;
37657;SDS011;23500;53.268;8.308;2022-08-21T11:11:31;10.55;;;4.88;;
37657;SDS011;23500;53.268;8.308;2022-08-21T11:19:43;12.15;;;5.78;;
37657;SDS011;23500;53.268;8.308;2022-08-21T11:24:50;11.48;;;5.15;;
37657;SDS011;23500;53.268;8.308;2022-08-21T11:27:28;12.85;;;5.45;;
37657;SDS011;23500;53.268;8.308;2022-08-21T11:30:00;11.50;;;4.63;;
37657;SDS011;23500;53.268;8.308;2022-08-21T11:38:40;9.80;;;4.20;;
37657;SDS011;23500;53.268;8.308;2022-08-21T11:41:13;8.63;;;3.90;;
37657;SDS011;23500;53.268;8.308;2022-08-21T11:43:49;9.90;;;3.70;;
37657;SDS011;23500;53.268;8.308;2022-08-21T12:00:21;7.93;;;3.80;;
37657;SDS011;23500;53.268;8.308;2022-08-21T12:02:52;9.88;;;3.53;;
37657;SDS011;23500;53.268;8.308;2022-08-21T12:08:04;7.00;;;3.30;;
37657;SDS011;23500;53.268;8.308;2022-08-21T12:11:05;8.95;;;3.50;;
37657;SDS011;23500;53.268;8.308;2022-08-21T12:13:39;8.85;;;3.17;;
37657;SDS011;23500;53.268;8.308;2022-08-21T12:16:28;6.80;;;3.00;;
37657;SDS011;23500;53.268;8.308;2022-08-21T12:19:09;11.13;;;2.85;;
37657;SDS011;23500;53.268;8.308;2022-08-21T12:21:49;6.72;;;3.10;;
37657;SDS011;23500;53.268;8.308;2022-08-21T12:26:59;9.10;;;3.13;;
37657;SDS011;23500;53.268;8.308;2022-08-21T12:29:38;6.10;;;2.70;;
37657;SDS011;23500;53.268;8.308;2022-08-21T12:34:37;6.22;;;2.85;;
37657;SDS011;23500;53.268;8.308;2022-08-21T12:37:15;5.28;;;2.78;;
37657;SDS011;23500;53.268;8.308;2022-08-21T12:40:00;6.65;;;3.00;;
37657;SDS011;23500;53.268;8.308;2022-08-21T12:42:36;5.30;;;2.58;;
37657;SDS011;23500;53.268;8.308;2022-08-21T12:50:38;8.38;;;2.50;;
37657;SDS011;23500;53.268;8.308;2022-08-21T12:55:40;6.60;;;2.38;;
37657;SDS011;23500;53.268;8.308;2022-08-21T12:58:16;6.55;;;2.50;;
37657;SDS011;23500;53.268;8.308;2022-08-21T13:00:47;4.70;;;2.47;;
37657;SDS011;23500;53.268;8.308;2022-08-21T13:03:21;8.05;;;3.03;;
37657;SDS011;23500;53.268;8.308;2022-08-21T13:05:48;6.35;;;2.70;;
37657;SDS011;23500;53.268;8.308;2022-08-21T13:08:16;7.82;;;2.83;;
37657;SDS011;23500;53.268;8.308;2022-08-21T13:10:47;5.50;;;2.80;;
37657;SDS011;23500;53.268;8.308;2022-08-21T13:13:21;5.93;;;2.67;;
37657;SDS011;23500;53.268;8.308;2022-08-21T13:15:48;7.03;;;3.05;;
37657;SDS011;23500;53.268;8.308;2022-08-21T13:18:22;4.03;;;2.53;;
37657;SDS011;23500;53.268;8.308;2022-08-21T13:20:50;7.47;;;2.65;;
37657;SDS011;23500;53.268;8.308;2022-08-21T13:23:26;4.75;;;2.45;;
37657;SDS011;23500;53.268;8.308;2022-08-21T13:25:54;6.75;;;2.53;;
37657;SDS011;23500;53.268;8.308;2022-08-21T13:28:20;4.25;;;2.47;;
37657;SDS011;23500;53.268;8.308;2022-08-21T13:30:50;5.93;;;2.40;;
37657;SDS011;23500;53.268;8.308;2022-08-21T13:33:18;5.15;;;2.40;;
37657;SDS011;23500;53.268;8.308;2022-08-21T13:38:22;5.82;;;2.40;;
37657;SDS011;23500;53.268;8.308;2022-08-21T13:40:55;3.42;;;2.00;;
37657;SDS011;23500;53.268;8.308;2022-08-21T13:43:34;2.88;;;1.92;;
37657;SDS011;23500;53.268;8.308;2022-08-21T13:46:02;5.15;;;2.28;;
37657;SDS011;23500;53.268;8.308;2022-08-21T13:48:34;3.58;;;1.98;;
37657;SDS011;23500;53.268;8.308;2022-08-21T13:51:01;3.83;;;1.95;;
37657;SDS011;23500;53.268;8.308;2022-08-21T13:53:33;4.63;;;1.85;;
37657;SDS011;23500;53.268;8.308;2022-08-21T13:56:24;5.78;;;1.95;;
37657;SDS011;23500;53.268;8.308;2022-08-21T13:58:53;8.88;;;3.08;;
37657;SDS011;23500;53.268;8.308;2022-08-21T14:01:30;12.70;;;2.83;;
37657;SDS011;23500;53.268;8.308;2022-08-21T14:04:07;11.85;;;3.70;;
37657;SDS011;23500;53.268;8.308;2022-08-21T14:06:44;14.77;;;3.90;;
37657;SDS011;23500;53.268;8.308;2022-08-21T14:09:12;10.05;;;3.28;;
37657;SDS011;23500;53.268;8.308;2022-08-21T14:11:47;11.32;;;3.45;;
37657;SDS011;23500;53.268;8.308;2022-08-21T14:14:22;17.20;;;5.30;;
37657;SDS011;23500;53.268;8.308;2022-08-21T14:16:57;17.02;;;5.63;;
37657;SDS011;23500;53.268;8.308;2022-08-21T14:19:27;15.10;;;5.38;;
37657;SDS011;23500;53.268;8.308;2022-08-21T14:22:12;20.08;;;6.18;;
37657;SDS011;23500;53.268;8.308;2022-08-21T14:24:59;23.55;;;6.22;;
37657;SDS011;23500;53.268;8.308;2022-08-21T14:27:30;18.35;;;6.90;;
37657;SDS011;23500;53.268;8.308;2022-08-21T14:30:03;25.48;;;7.95;;
37657;SDS011;23500;53.268;8.308;2022-08-21T14:32:49;27.52;;;8.05;;
37657;SDS011;23500;53.268;8.308;2022-08-21T14:35:15;29.10;;;10.30;;
37657;SDS011;23500;53.268;8.308;2022-08-21T14:37:43;34.60;;;10.75;;
37657;SDS011;23500;53.268;8.308;2022-08-21T14:40:10;34.95;;;11.65;;
37657;SDS011;23500;53.268;8.308;2022-08-21T14:42:37;38.72;;;12.20;;
37657;SDS011;23500;53.268;8.308;2022-08-21T14:45:07;39.25;;;12.73;;
37657;SDS011;23500;53.268;8.308;2022-08-21T14:47:40;47.53;;;14.38;;
37657;SDS011;23500;53.268;8.308;2022-08-21T14:50:08;43.60;;;12.82;;
37657;SDS011;23500;53.268;8.308;2022-08-21T14:52:35;42.42;;;14.35;;
37657;SDS011;23500;53.268;8.308;2022-08-21T14:55:02;42.95;;;14.07;;
37657;SDS011;23500;53.268;8.308;2022-08-21T14:57:29;43.55;;;14.85;;
37657;SDS011;23500;53.268;8.308;2022-08-21T14:59:56;45.20;;;15.07;;
37657;SDS011;23500;53.268;8.308;2022-08-21T15:02:22;46.88;;;15.50;;
37657;SDS011;23500;53.268;8.308;2022-08-21T15:04:48;51.10;;;15.70;;
37657;SDS011;23500;53.268;8.308;2022-08-21T15:07:13;40.20;;;15.30;;
37657;SDS011;23500;53.268;8.308;2022-08-21T15:09:39;46.63;;;15.27;;
37657;SDS011;23500;53.268;8.308;2022-08-21T15:12:05;43.00;;;16.15;;
37657;SDS011;23500;53.268;8.308;2022-08-21T15:14:33;47.85;;;15.00;;
37657;SDS011;23500;53.268;8.308;2022-08-21T15:17:01;47.95;;;16.27;;
37657;SDS011;23500;53.268;8.308;2022-08-21T15:19:28;42.25;;;15.48;;
37657;SDS011;23500;53.268;8.308;2022-08-21T15:21:55;46.97;;;16.00;;
37657;SDS011;23500;53.268;8.308;2022-08-21T15:24:21;47.65;;;16.10;;
37657;SDS011;23500;53.268;8.308;2022-08-21T15:26:46;47.83;;;16.85;;
37657;SDS011;23500;53.268;8.308;2022-08-21T15:29:13;48.22;;;16.08;;
37657;SDS011;23500;53.268;8.308;2022-08-21T15:32:00;45.58;;;15.60;;
37657;SDS011;23500;53.268;8.308;2022-08-21T15:34:28;41.47;;;15.43;;
37657;SDS011;23500;53.268;8.308;2022-08-21T15:36:54;49.80;;;17.00;;
37657;SDS011;23500;53.268;8.308;2022-08-21T15:39:21;45.83;;;15.82;;
37657;SDS011;23500;53.268;8.308;2022-08-21T15:41:47;42.95;;;15.80;;
37657;SDS011;23500;53.268;8.308;2022-08-21T15:44:12;46.10;;;16.75;;
37657;SDS011;23500;53.268;8.308;2022-08-21T15:46:39;43.40;;;15.93;;
37657;SDS011;23500;53.268;8.308;2022-08-21T15:49:05;44.05;;;15.88;;
37657;SDS011;23500;53.268;8.308;2022-08-21T15:51:31;42.90;;;16.02;;
37657;SDS011;23500;53.268;8.308;2022-08-21T15:53:57;47.40;;;16.15;;
37657;SDS011;23500;53.268;8.308;2022-08-21T15:56:43;40.88;;;16.02;;
37657;SDS011;23500;53.268;8.308;2022-08-21T15:59:15;41.05;;;15.43;;
37657;SDS011;23500;53.268;8.308;2022-08-21T16:01:44;40.97;;;16.00;;
37657;SDS011;23500;53.268;8.308;2022-08-21T16:04:13;39.88;;;15.10;;
37657;SDS011;23500;53.268;8.308;2022-08-21T16:06:45;37.72;;;15.63;;
37657;SDS011;23500;53.268;8.308;2022-08-21T16:09:11;39.30;;;15.45;;
37657;SDS011;23500;53.268;8.308;2022-08-21T16:11:37;38.90;;;15.45;;
37657;SDS011;23500;53.268;8.308;2022-08-21T16:14:03;38.95;;;15.23;;
37657;SDS011;23500;53.268;8.308;2022-08-21T16:16:29;41.97;;;15.27;;
37657;SDS011;23500;53.268;8.308;2022-08-21T16:18:58;36.83;;;14.02;;
37657;SDS011;23500;53.268;8.308;2022-08-21T16:21:24;36.53;;;14.63;;
37657;SDS011;23500;53.268;8.308;2022-08-21T16:23:49;37.50;;;14.70;;
37657;SDS011;23500;53.268;8.308;2022-08-21T16:26:15;37.15;;;14.43;;